Terminal Aerodrome Forecast
Issued by NWS

Home | Current Version | Previous Version | Text Only | Print | Product List | Glossary On
Versions: 1 2 3 4 5 6 7 8 9 10 11 12 13 14 15 16 17 18 19
000
FTUS43 KMQT 021820 AAA
TAFSAW
TAF AMD
KSAW 021820Z 0218/0318 03004KT 4SM BR SCT006 OVC100
     FM021930 04005KT 5SM -SHRA BKN040
     FM030100 06004KT 6SM BR VCSH BKN040
     FM030500 00000KT 4SM BR BKN040
     FM030600 00000KT 2SM BR SCT006 BKN035
     FM031100 05003KT 1SM BR BKN006
     FM031300 05003KT P6SM SCT110=

USA.gov is the U.S. government's official web portal to all federal, state and local government web resources and services.